Time;durP1;ratioP1;P1;durP2;ratioP2;P2;SDS_P1;SDS_P2;PMS_P1;PMS_P2;Temp;Humidity;BMP_temperature;BMP_pressure;BME280_temperature;BME280_humidity;BME280_pressure;Samples;Min_cycle;Max_cycle;Signal;HPM_P1;HPM_P2
2021/03/23 00:00:25;;;;;;;24.77;11.20;;;;;;;1.50;100.00;96758.47;1027556;28;20030;-57
2021/03/23 00:01:07;;;;;;;20.55;9.73;;;;;;;1.50;100.00;96745.38;1027568;28;20062;-56
2021/03/23 00:01:38;;;;;;;20.23;9.90;;;;;;;1.49;100.00;96751.56;1031723;28;20045;-54
2021/03/23 00:02:10;;;;;;;21.85;9.90;;;;;;;1.50;100.00;96748.00;1027581;28;20026;-55
2021/03/23 00:02:40;;;;;;;20.77;10.20;;;;;;;1.51;100.00;96749.66;1019537;28;20046;-56
2021/03/23 00:03:13;;;;;;;22.70;11.02;;;;;;;1.51;100.00;96754.91;1027640;28;20065;-56
2021/03/23 00:03:47;;;;;;;20.90;10.70;;;;;;;1.48;100.00;96753.34;1031306;28;20556;-56
2021/03/23 00:04:18;;;;;;;28.50;11.57;;;;;;;1.48;100.00;96753.34;1019737;28;20452;-56
2021/03/23 00:04:49;;;;;;;23.85;10.73;;;;;;;1.47;100.00;96749.03;1023427;29;20477;-55
2021/03/23 00:05:20;;;;;;;21.73;10.95;;;;;;;1.48;100.00;96755.94;1027592;28;20130;-55
2021/03/23 00:05:51;;;;;;;18.58;9.73;;;;;;;1.48;100.00;96761.19;1035699;28;20484;-55
2021/03/23 00:06:24;;;;;;;18.90;10.00;;;;;;;1.44;100.00;96751.00;1023633;28;20472;-56
2021/03/23 00:06:55;;;;;;;24.27;11.35;;;;;;;1.45;100.00;96761.38;1027557;28;20448;-55
2021/03/23 00:07:25;;;;;;;20.30;11.07;;;;;;;1.46;100.00;96763.06;1019616;28;20107;-56
2021/03/23 00:07:56;;;;;;;23.15;10.43;;;;;;;1.48;100.00;96749.84;1023586;28;20106;-56
2021/03/23 00:08:37;;;;;;;26.17;11.52;;;;;;;1.45;100.00;96760.53;1031553;28;20018;-56
2021/03/23 00:09:07;;;;;;;24.50;10.52;;;;;;;1.48;100.00;96755.09;1031549;28;20519;-56
2021/03/23 00:09:38;;;;;;;29.75;11.15;;;;;;;1.44;100.00;96759.69;1027482;28;20057;-56
2021/03/23 00:10:10;;;;;;;21.60;11.20;;;;;;;1.47;100.00;96756.06;1027566;28;20054;-55
2021/03/23 00:10:41;;;;;;;20.05;10.63;;;;;;;1.48;100.00;96760.31;1019527;29;20114;-55
2021/03/23 00:11:23;;;;;;;21.67;10.80;;;;;;;1.50;100.00;96759.31;1031600;28;20073;-57
2021/03/23 00:11:54;;;;;;;21.42;10.38;;;;;;;1.49;100.00;96764.63;1031469;28;20041;-55
2021/03/23 00:12:25;;;;;;;20.70;10.23;;;;;;;1.52;100.00;96764.44;1027522;28;20025;-56
2021/03/23 00:12:56;;;;;;;23.65;11.63;;;;;;;1.50;100.00;96761.91;1027437;28;20037;-57
2021/03/23 00:13:26;;;;;;;21.17;10.70;;;;;;;1.37;100.00;96768.03;1027456;28;20026;-56
2021/03/23 00:13:58;;;;;;;23.38;11.25;;;;;;;1.41;100.00;96766.91;1031419;28;20026;-55
2021/03/23 00:14:31;;;;;;;26.02;11.82;;;;;;;1.44;100.00;96769.31;1027555;28;20563;-54
2021/03/23 00:15:03;;;;;;;22.33;11.20;;;;;;;1.37;100.00;96768.88;1023525;28;20019;-56
2021/03/23 00:15:34;;;;;;;24.25;11.60;;;;;;;1.40;100.00;96766.06;1027521;28;20022;-56
2021/03/23 00:16:05;;;;;;;24.00;11.40;;;;;;;1.41;100.00;96769.50;1027563;28;20049;-55
2021/03/23 00:16:38;;;;;;;23.58;11.15;;;;;;;1.40;100.00;96767.84;1031525;28;20579;-54
2021/03/23 00:17:09;;;;;;;21.60;10.85;;;;;;;1.46;100.00;96772.69;1023376;28;20027;-57
2021/03/23 00:17:40;;;;;;;21.58;10.93;;;;;;;1.47;100.00;96771.75;1027503;28;20023;-57
2021/03/23 00:18:11;;;;;;;24.17;11.85;;;;;;;1.48;100.00;96771.66;1027595;28;20015;-56
2021/03/23 00:18:42;;;;;;;21.13;11.05;;;;;;;1.49;100.00;96769.88;1023477;28;20019;-56
2021/03/23 00:19:14;;;;;;;25.83;10.98;;;;;;;1.41;100.00;96764.28;1031443;28;20026;-56
2021/03/23 00:19:44;;;;;;;29.25;11.95;;;;;;;1.40;100.00;96771.31;1035615;28;20028;-53
2021/03/23 00:20:18;;;;;;;24.73;11.90;;;;;;;1.38;100.00;96767.13;1031594;28;20034;-56
2021/03/23 00:20:48;;;;;;;22.20;11.57;;;;;;;1.44;100.00;96769.31;1035554;28;20107;-56
2021/03/23 00:21:19;;;;;;;23.73;11.45;;;;;;;1.47;100.00;96766.53;1027403;28;20015;-55
2021/03/23 00:21:50;;;;;;;24.42;11.90;;;;;;;1.47;100.00;96767.34;1031452;28;20026;-56
2021/03/23 00:22:21;;;;;;;25.73;11.68;;;;;;;1.48;100.00;96765.56;1031622;28;20056;-56
2021/03/23 00:22:51;;;;;;;23.45;10.73;;;;;;;1.49;100.00;96767.25;1019585;28;20055;-55
2021/03/23 00:23:22;;;;;;;20.73;11.80;;;;;;;1.43;100.00;96763.25;1023424;28;20019;-56
2021/03/23 00:23:53;;;;;;;22.13;11.02;;;;;;;1.37;100.00;96754.97;1027397;28;20023;-56
2021/03/23 00:24:24;;;;;;;20.75;10.70;;;;;;;1.48;100.00;96769.03;1019618;29;20023;-56
2021/03/23 00:24:54;;;;;;;22.67;11.80;;;;;;;1.46;100.00;96772.69;1035505;28;20109;-56
2021/03/23 00:25:25;;;;;;;23.88;11.07;;;;;;;1.38;100.00;96773.19;1031444;28;20032;-56
2021/03/23 00:25:57;;;;;;;26.63;11.70;;;;;;;1.40;100.00;96778.31;1035693;28;20022;-55
2021/03/23 00:26:28;;;;;;;22.23;11.73;;;;;;;1.42;100.00;96782.50;1031476;28;20148;-55
2021/03/23 00:26:58;;;;;;;23.63;11.15;;;;;;;1.44;100.00;96775.38;1023538;28;20020;-57
2021/03/23 00:27:29;;;;;;;19.38;10.18;;;;;;;1.42;100.00;96776.44;1023337;28;20114;-55
2021/03/23 00:28:00;;;;;;;27.40;12.52;;;;;;;1.44;100.00;96774.56;1027420;28;20027;-56
2021/03/23 00:28:31;;;;;;;25.60;11.63;;;;;;;1.44;100.00;96778.00;1035474;28;20156;-56
2021/03/23 00:29:03;;;;;;;27.25;12.50;;;;;;;1.45;100.00;96771.84;1019553;29;20049;-56
2021/03/23 00:29:33;;;;;;;24.90;11.40;;;;;;;1.46;100.00;96784.00;1027373;28;20042;-56
2021/03/23 00:30:08;;;;;;;21.88;11.63;;;;;;;1.44;100.00;96771.94;1015709;29;20064;-56
2021/03/23 00:30:38;;;;;;;24.83;11.63;;;;;;;1.42;100.00;96781.69;1023498;28;20369;-55
2021/03/23 00:31:09;;;;;;;24.15;11.50;;;;;;;1.42;100.00;96777.28;1023686;29;20039;-55
2021/03/23 00:31:40;;;;;;;27.98;12.60;;;;;;;1.42;100.00;96777.28;1019538;29;20020;-56
2021/03/23 00:32:10;;;;;;;24.38;12.70;;;;;;;1.43;100.00;96772.88;1027541;28;20034;-56
2021/03/23 00:32:41;;;;;;;21.52;11.70;;;;;;;1.46;100.00;96772.69;1035612;28;20030;-55
2021/03/23 00:33:12;;;;;;;27.00;11.77;;;;;;;1.46;100.00;96781.38;1027581;28;20039;-56
2021/03/23 00:33:42;;;;;;;24.55;12.25;;;;;;;1.46;100.00;96772.69;1027206;28;20033;-55
2021/03/23 00:34:13;;;;;;;24.38;12.55;;;;;;;1.46;100.00;96773.53;1023557;28;20485;-57
2021/03/23 00:34:44;;;;;;;23.75;11.30;;;;;;;1.38;100.00;96777.59;1027502;28;20023;-55
2021/03/23 00:35:14;;;;;;;23.25;12.13;;;;;;;1.40;100.00;96770.47;1031636;28;20395;-55
2021/03/23 00:35:45;;;;;;;25.77;12.10;;;;;;;1.42;100.00;96773.81;1027410;28;20073;-54
2021/03/23 00:36:19;;;;;;;29.02;11.95;;;;;;;1.43;100.00;96768.50;1027534;28;20492;-56
2021/03/23 00:36:49;;;;;;;26.88;11.40;;;;;;;1.41;100.00;96772.13;1032108;28;20030;-56
2021/03/23 00:37:20;;;;;;;27.58;12.45;;;;;;;1.38;100.00;96764.50;1028165;28;20034;-57
2021/03/23 00:37:53;;;;;;;24.92;12.38;;;;;;;1.42;100.00;96764.19;1036255;28;20575;-54
2021/03/23 00:38:24;;;;;;;24.70;11.60;;;;;;;1.43;100.00;96762.41;1028664;28;20041;-56
2021/03/23 00:38:55;;;;;;;24.73;12.15;;;;;;;1.40;100.00;96773.09;1024179;29;20034;-55
2021/03/23 00:39:25;;;;;;;21.40;11.27;;;;;;;1.39;100.00;96766.16;1032264;28;20026;-57
2021/03/23 00:39:57;;;;;;;23.65;11.20;;;;;;;1.42;100.00;96760.75;1028072;28;20472;-57
2021/03/23 00:40:29;;;;;;;23.88;11.35;;;;;;;1.40;100.00;96765.25;1024251;28;20022;-57
2021/03/23 00:41:00;;;;;;;23.60;11.43;;;;;;;1.38;100.00;96756.66;1032208;28;20057;-55
2021/03/23 00:41:32;;;;;;;25.35;12.10;;;;;;;1.41;100.00;96766.91;1032220;28;20049;-56
2021/03/23 00:42:05;;;;;;;23.73;11.32;;;;;;;1.38;100.00;96765.34;1024156;28;20027;-56
2021/03/23 00:42:35;;;;;;;22.02;12.27;;;;;;;1.39;100.00;96771.41;1024259;28;20019;-56
2021/03/23 00:43:07;;;;;;;22.98;12.02;;;;;;;1.39;100.00;96760.94;1032222;28;20022;-56
2021/03/23 00:43:38;;;;;;;26.10;11.77;;;;;;;1.38;100.00;96759.28;1027985;28;20022;-54
2021/03/23 00:44:10;;;;;;;25.25;11.90;;;;;;;1.39;100.00;96764.38;1028112;28;20023;-55
2021/03/23 00:44:41;;;;;;;24.05;11.93;;;;;;;1.38;100.00;96767.13;1024204;28;20027;-56
2021/03/23 00:45:12;;;;;;;27.45;11.70;;;;;;;1.33;100.00;96753.50;1024103;28;20445;-56
2021/03/23 00:45:43;;;;;;;22.30;11.57;;;;;;;1.34;100.00;96761.22;1024289;28;20015;-56
2021/03/23 00:46:14;;;;;;;25.23;12.52;;;;;;;1.36;100.00;96755.88;1028138;28;20520;-56
2021/03/23 00:46:45;;;;;;;23.77;11.68;;;;;;;1.38;100.00;96761.88;1024194;28;20080;-56
2021/03/23 00:47:15;;;;;;;26.65;12.23;;;;;;;1.37;100.00;96758.41;1028292;28;20061;-56
2021/03/23 00:47:46;;;;;;;23.63;11.65;;;;;;;1.38;100.00;96761.88;1028092;28;20485;-56
2021/03/23 00:48:17;;;;;;;21.00;11.30;;;;;;;1.39;100.00;96758.31;1028065;28;20022;-55
2021/03/23 00:48:48;;;;;;;23.30;11.70;;;;;;;1.37;100.00;96757.59;1028093;28;20022;-56
2021/03/23 00:49:19;;;;;;;26.38;11.82;;;;;;;1.33;100.00;96761.34;1032171;28;20029;-56
2021/03/23 00:49:49;;;;;;;23.75;11.68;;;;;;;1.30;100.00;96759.75;1028176;28;20023;-56
2021/03/23 00:50:20;;;;;;;22.13;11.48;;;;;;;1.31;100.00;96758.81;1028038;28;20022;-55
2021/03/23 00:50:51;;;;;;;23.67;12.30;;;;;;;1.26;100.00;96753.88;1020268;28;20027;-56
2021/03/23 00:51:21;;;;;;;26.42;12.77;;;;;;;1.26;100.00;96760.88;1028164;28;20126;-56
2021/03/23 00:51:53;;;;;;;32.53;13.13;;;;;;;1.26;100.00;96756.50;1024197;28;20023;-57
2021/03/23 00:52:24;;;;;;;23.30;11.82;;;;;;;1.29;100.00;96758.09;1028085;28;20041;-55
2021/03/23 00:52:54;;;;;;;24.42;12.48;;;;;;;1.27;100.00;96755.56;1024199;28;20500;-56
2021/03/23 00:53:25;;;;;;;25.90;12.73;;;;;;;1.27;100.00;96752.09;1032167;28;20057;-55
2021/03/23 00:53:56;;;;;;;27.23;11.90;;;;;;;1.25;100.00;96757.41;1031980;28;20624;-56
2021/03/23 00:54:27;;;;;;;26.58;12.43;;;;;;;1.24;100.00;96753.13;1024077;29;20027;-56
2021/03/23 00:54:57;;;;;;;25.67;12.32;;;;;;;1.21;100.00;96753.31;1024190;29;20027;-53
2021/03/23 00:55:28;;;;;;;24.77;13.25;;;;;;;1.21;100.00;96753.31;1032217;28;20022;-56
2021/03/23 00:56:01;;;;;;;24.02;12.85;;;;;;;1.22;100.00;96755.00;1020195;29;20023;-56
2021/03/23 00:56:32;;;;;;;25.00;12.05;;;;;;;1.22;100.00;96755.00;1028144;28;20037;-57
2021/03/23 00:57:03;;;;;;;24.27;12.80;;;;;;;1.21;100.00;96752.50;1024076;28;20050;-56
2021/03/23 00:57:33;;;;;;;27.75;12.88;;;;;;;1.21;100.00;96748.09;1023977;29;20028;-55
2021/03/23 00:58:04;;;;;;;23.38;12.45;;;;;;;1.18;100.00;96752.69;1028075;28;20396;-56
2021/03/23 00:58:35;;;;;;;25.40;11.77;;;;;;;1.00;100.00;96741.63;1036224;28;20123;-55
2021/03/23 00:59:05;;;;;;;24.70;12.45;;;;;;;0.99;100.00;96742.56;1032140;28;20459;-53
2021/03/23 00:59:36;;;;;;;24.45;11.98;;;;;;;1.05;100.00;96750.84;1028185;28;20023;-56
2021/03/23 01:00:09;;;;;;;27.77;11.70;;;;;;;1.01;100.00;96756.38;1028094;28;20015;-56
2021/03/23 01:00:40;;;;;;;27.00;12.45;;;;;;;0.98;100.00;96746.13;1028215;28;20023;-57
2021/03/23 01:01:11;;;;;;;27.00;13.02;;;;;;;0.91;100.00;96749.09;1032083;28;20109;-56
2021/03/23 01:01:41;;;;;;;26.48;12.93;;;;;;;0.89;100.00;96753.59;1032134;28;20014;-55
2021/03/23 01:02:12;;;;;;;27.38;13.15;;;;;;;0.86;100.00;96759.00;1024103;29;20016;-57
2021/03/23 01:02:44;;;;;;;28.67;13.60;;;;;;;0.83;100.00;96758.38;1028169;28;20019;-55
2021/03/23 01:03:15;;;;;;;26.73;12.98;;;;;;;0.78;100.00;96756.03;1028027;28;20029;-55
2021/03/23 01:03:46;;;;;;;28.33;13.15;;;;;;;0.79;100.00;96752.50;1027889;28;20381;-55
2021/03/23 01:04:16;;;;;;;26.85;13.02;;;;;;;0.74;100.00;96762.38;1028125;28;20023;-55
2021/03/23 01:04:47;;;;;;;29.08;13.48;;;;;;;0.74;100.00;96757.16;1024173;28;20573;-56
2021/03/23 01:05:19;;;;;;;26.00;12.95;;;;;;;0.75;100.00;96757.06;1028045;28;20026;-55
2021/03/23 01:05:50;;;;;;;27.48;13.73;;;;;;;0.73;100.00;96755.47;1024066;28;20062;-54
2021/03/23 01:06:21;;;;;;;26.52;13.55;;;;;;;0.71;100.00;96760.78;1024092;28;20031;-56
2021/03/23 01:06:51;;;;;;;25.25;13.35;;;;;;;0.75;100.00;96758.84;1020193;28;20032;-56
2021/03/23 01:07:22;;;;;;;24.05;12.48;;;;;;;0.76;100.00;96757.91;1032246;28;20113;-56
2021/03/23 01:07:53;;;;;;;23.17;13.13;;;;;;;0.74;100.00;96755.38;1028002;28;20158;-57
2021/03/23 01:08:23;;;;;;;28.98;12.90;;;;;;;0.74;100.00;96757.16;1028036;28;20029;-57
2021/03/23 01:08:54;;;;;;;26.92;12.50;;;;;;;0.79;100.00;96757.72;1028099;28;20049;-54
2021/03/23 01:09:25;;;;;;;26.67;12.95;;;;;;;0.77;100.00;96756.97;1036167;28;20030;-55
2021/03/23 01:09:56;;;;;;;25.77;12.95;;;;;;;0.75;100.00;96756.25;1027955;28;20057;-55
2021/03/23 01:10:28;;;;;;;23.55;12.15;;;;;;;0.77;100.00;96758.72;1028009;28;20129;-56
2021/03/23 01:10:58;;;;;;;30.02;12.20;;;;;;;0.80;100.00;96762.03;1024096;28;20053;-57
2021/03/23 01:11:29;;;;;;;26.30;13.35;;;;;;;0.77;100.00;96751.75;1024143;28;20515;-56
2021/03/23 01:12:00;;;;;;;23.05;12.48;;;;;;;0.80;100.00;96754.19;1027994;28;20037;-55
2021/03/23 01:12:31;;;;;;;23.85;13.00;;;;;;;0.83;100.00;96753.13;1024102;29;20019;-56
2021/03/23 01:13:02;;;;;;;28.98;13.52;;;;;;;0.78;100.00;96737.72;1028125;28;20019;-54
2021/03/23 01:13:32;;;;;;;27.38;13.55;;;;;;;0.77;100.00;96756.97;1023963;28;20022;-55
2021/03/23 01:14:03;;;;;;;27.52;12.85;;;;;;;0.79;100.00;96756.88;1027884;28;20033;-56
2021/03/23 01:14:35;;;;;;;25.88;12.80;;;;;;;0.78;100.00;96749.97;1028074;28;20023;-56
2021/03/23 01:15:07;;;;;;;28.40;13.60;;;;;;;0.82;100.00;96748.81;1024215;28;20046;-56
2021/03/23 01:15:38;;;;;;;28.38;12.68;;;;;;;0.80;100.00;96750.72;1028107;28;20029;-55
2021/03/23 01:16:08;;;;;;;29.65;12.90;;;;;;;0.81;100.00;96750.63;1032045;28;20026;-57
2021/03/23 01:16:39;;;;;;;27.88;13.40;;;;;;;0.75;100.00;96738.78;1028079;28;20023;-55
2021/03/23 01:17:10;;;;;;;22.73;12.60;;;;;;;0.82;100.00;96752.31;1036170;28;20472;-55
2021/03/23 01:17:41;;;;;;;27.92;12.98;;;;;;;0.83;100.00;96751.34;1032107;28;20460;-56
2021/03/23 01:18:12;;;;;;;28.67;13.77;;;;;;;0.84;100.00;96747.81;1024039;28;20094;-57
2021/03/23 01:18:43;;;;;;;28.95;13.45;;;;;;;0.85;100.00;96757.31;1032031;28;20033;-57
2021/03/23 01:19:14;;;;;;;26.58;12.95;;;;;;;0.84;100.00;96750.44;1028231;28;20419;-56
2021/03/23 01:19:45;;;;;;;26.00;12.35;;;;;;;0.84;100.00;96753.03;1020144;29;20047;-57
2021/03/23 01:20:17;;;;;;;29.83;13.35;;;;;;;0.83;100.00;96745.28;1031939;28;20042;-56
2021/03/23 01:20:48;;;;;;;26.90;13.63;;;;;;;0.80;100.00;96742.88;1032064;28;20033;-55
2021/03/23 01:21:19;;;;;;;28.65;13.05;;;;;;;0.85;100.00;96756.50;1024026;28;20436;-54
2021/03/23 01:21:49;;;;;;;28.58;13.27;;;;;;;0.84;100.00;96750.44;1028160;28;20101;-54
2021/03/23 01:22:20;;;;;;;26.75;12.93;;;;;;;0.86;100.00;96755.56;1031870;28;20076;-56
2021/03/23 01:22:51;;;;;;;29.48;13.48;;;;;;;0.85;100.00;96754.69;1028093;28;20121;-56
2021/03/23 01:23:22;;;;;;;27.75;13.95;;;;;;;0.85;100.00;96746.84;1028009;28;20025;-57
2021/03/23 01:23:53;;;;;;;29.92;14.48;;;;;;;0.86;100.00;96752.94;1031947;28;20113;-56
2021/03/23 01:24:24;;;;;;;33.33;15.18;;;;;;;0.81;100.00;96739.31;1027844;28;20029;-55
2021/03/23 01:24:55;;;;;;;26.67;13.45;;;;;;;0.80;100.00;96748.09;1028101;28;20114;-54
2021/03/23 01:25:26;;;;;;;26.40;13.98;;;;;;;0.78;100.00;96752.59;1024143;28;20038;-54
2021/03/23 01:25:56;;;;;;;28.38;13.63;;;;;;;0.77;100.00;96753.50;1028070;28;20030;-55
2021/03/23 01:26:27;;;;;;;26.15;13.00;;;;;;;0.78;100.00;96745.56;1020047;29;20063;-57
2021/03/23 01:26:58;;;;;;;28.92;14.00;;;;;;;0.77;100.00;96737.81;1028005;28;20038;-55
2021/03/23 01:27:28;;;;;;;26.02;13.00;;;;;;;0.74;100.00;96733.63;1028142;28;20101;-55
2021/03/23 01:27:59;;;;;;;30.83;14.55;;;;;;;0.82;100.00;96752.31;1027974;28;20049;-55
2021/03/23 01:28:30;;;;;;;29.17;14.30;;;;;;;0.83;100.00;96753.13;1031974;28;20022;-55
2021/03/23 01:29:01;;;;;;;26.15;13.88;;;;;;;0.82;100.00;96746.22;1028046;28;20106;-57
2021/03/23 01:29:31;;;;;;;30.63;13.88;;;;;;;0.79;100.00;96743.81;1024109;28;20485;-56
2021/03/23 01:30:05;;;;;;;30.73;14.02;;;;;;;0.78;100.00;96748.19;1028021;28;20058;-56
2021/03/23 01:30:35;;;;;;;28.65;13.88;;;;;;;0.81;100.00;96750.63;1023978;28;20027;-56
2021/03/23 01:31:06;;;;;;;26.23;13.77;;;;;;;0.80;100.00;96742.88;1024052;28;20023;-56
2021/03/23 01:31:37;;;;;;;28.17;14.35;;;;;;;0.83;100.00;96747.91;1028075;28;20436;-55
2021/03/23 01:32:08;;;;;;;25.95;13.38;;;;;;;0.83;100.00;96748.75;1028087;28;20038;-57
2021/03/23 01:32:39;;;;;;;35.67;16.00;;;;;;;0.81;100.00;96748.00;1031903;28;20019;-55
2021/03/23 01:33:09;;;;;;;27.67;14.43;;;;;;;0.78;100.00;96745.56;1027999;28;20046;-56
2021/03/23 01:33:40;;;;;;;27.50;14.15;;;;;;;0.79;100.00;96752.50;1027830;28;20022;-55
2021/03/23 01:34:11;;;;;;;30.90;14.52;;;;;;;0.79;100.00;96747.25;1028018;28;20026;-56
2021/03/23 01:34:44;;;;;;;25.48;12.27;;;;;;;0.79;100.00;96746.44;1031923;28;20117;-54
2021/03/23 01:35:15;;;;;;;29.65;14.18;;;;;;;0.80;100.00;96748.94;1036107;28;20478;-56
2021/03/23 01:35:46;;;;;;;30.20;14.10;;;;;;;0.79;100.00;96749.88;1032024;28;20034;-56
2021/03/23 01:36:16;;;;;;;29.23;13.20;;;;;;;0.81;100.00;96748.00;1027958;28;20027;-57
2021/03/23 01:36:47;;;;;;;28.08;14.00;;;;;;;0.80;100.00;96748.94;1027926;28;20019;-56
2021/03/23 01:37:18;;;;;;;31.00;14.05;;;;;;;0.74;100.00;96736.25;1031981;28;20018;-56
2021/03/23 01:37:49;;;;;;;28.75;14.15;;;;;;;0.82;100.00;96741.00;1031896;28;20023;-56
2021/03/23 01:38:20;;;;;;;27.38;14.18;;;;;;;0.82;100.00;96741.84;1028012;28;20019;-56
2021/03/23 01:38:50;;;;;;;30.48;14.15;;;;;;;0.77;100.00;96733.44;1027814;28;20030;-55
2021/03/23 01:39:22;;;;;;;31.40;15.20;;;;;;;0.81;100.00;96740.16;1032064;28;20014;-56
2021/03/23 01:39:53;;;;;;;24.25;12.90;;;;;;;0.81;100.00;96734.94;1024033;28;20023;-56
2021/03/23 01:40:25;;;;;;;28.67;14.18;;;;;;;0.80;100.00;96738.50;1032081;28;20057;-56
2021/03/23 01:40:56;;;;;;;31.40;14.13;;;;;;;0.78;100.00;96740.34;1028001;28;20456;-57
2021/03/23 01:41:27;;;;;;;27.13;14.23;;;;;;;0.78;100.00;96731.66;1031933;28;20065;-56
2021/03/23 01:41:57;;;;;;;27.35;13.60;;;;;;;0.73;100.00;96735.41;1036082;28;20175;-56
2021/03/23 01:42:40;;;;;;;32.15;14.90;;;;;;;0.66;100.00;96743.72;1023994;29;20023;-56
2021/03/23 01:43:20;;;;;;;25.75;13.35;;;;;;;0.58;100.00;96738.16;1025631;28;20034;-56
2021/03/23 01:43:51;;;;;;;29.40;13.43;;;;;;;0.59;100.00;96737.19;1030718;28;20113;-55
2021/03/23 01:44:21;;;;;;;31.98;14.95;;;;;;;0.53;100.00;96741.88;1039239;28;20487;-56
2021/03/23 01:45:12;;;;;;;37.78;16.17;;;;;;;0.53;100.00;96741.03;1035937;28;20022;-56
2021/03/23 01:45:42;;;;;;;30.02;13.65;;;;;;;0.51;100.00;96733.28;1032097;28;20409;-56
2021/03/23 01:46:43;;;;;;;28.88;14.02;;;;;;;0.42;100.00;96733.84;1027961;28;20017;-56
2021/03/23 01:47:14;;;;;;;31.10;14.65;;;;;;;0.44;100.00;96731.16;1036069;28;20482;-56
2021/03/23 01:47:45;;;;;;;31.25;15.05;;;;;;;0.44;100.00;96732.00;1027804;28;20015;-56
2021/03/23 01:48:20;;;;;;;32.10;15.10;;;;;;;0.43;100.00;96727.69;1027672;28;20045;-54
2021/03/23 01:48:50;;;;;;;26.45;13.57;;;;;;;0.43;100.00;96729.47;1028568;28;20081;-56
2021/03/23 01:49:23;;;;;;;31.38;15.32;;;;;;;0.44;100.00;96728.53;1039960;28;20503;-56
2021/03/23 01:49:54;;;;;;;31.55;15.23;;;;;;;0.43;100.00;96730.28;1027930;28;20036;-56
2021/03/23 01:50:26;;;;;;;36.13;15.25;;;;;;;0.42;100.00;96733.00;1023922;28;20111;-55
2021/03/23 01:51:00;;;;;;;28.77;14.98;;;;;;;0.42;100.00;96727.78;1020602;29;20027;-57
2021/03/23 01:51:30;;;;;;;32.55;16.15;;;;;;;0.41;100.00;96732.16;1032448;28;20018;-56
2021/03/23 01:52:03;;;;;;;30.95;14.80;;;;;;;0.42;100.00;96730.38;1027936;28;20015;-56
2021/03/23 01:52:34;;;;;;;28.13;14.20;;;;;;;0.41;100.00;96733.94;1023864;28;20027;-55
2021/03/23 01:53:18;;;;;;;32.13;15.75;;;;;;;0.39;100.00;96728.81;1031949;28;20369;-57
2021/03/23 01:53:49;;;;;;;27.40;14.77;;;;;;;0.39;100.00;96728.81;1031697;28;20056;-57
2021/03/23 01:54:29;;;;;;;31.60;13.98;;;;;;;0.37;100.00;96725.47;1019991;28;20136;-55
2021/03/23 01:55:02;;;;;;;32.00;14.50;;;;;;;0.35;100.00;96720.31;1032070;28;20026;-56
2021/03/23 01:55:33;;;;;;;31.45;14.68;;;;;;;0.34;100.00;96726.47;1031811;28;20019;-56
2021/03/23 01:56:05;;;;;;;33.83;15.43;;;;;;;0.31;100.00;96715.38;1028027;28;20034;-56
2021/03/23 01:56:36;;;;;;;36.38;15.25;;;;;;;0.28;100.00;96718.16;1027877;28;20011;-56
2021/03/23 01:57:09;;;;;;;31.20;14.55;;;;;;;0.32;100.00;96727.50;1032029;28;20041;-56
2021/03/23 01:57:39;;;;;;;31.75;15.27;;;;;;;0.32;100.00;96730.97;1027810;28;20015;-56
2021/03/23 01:58:10;;;;;;;37.15;16.67;;;;;;;0.30;100.00;96719.78;1027858;28;20014;-55
2021/03/23 01:58:43;;;;;;;28.30;14.65;;;;;;;0.31;100.00;96728.44;1031994;28;20022;-55
2021/03/23 01:59:14;;;;;;;33.88;16.88;;;;;;;0.29;100.00;96722.47;1028173;28;20526;-55
2021/03/23 01:59:47;;;;;;;33.05;15.85;;;;;;;0.28;100.00;96719.03;1019940;29;20027;-57
2021/03/23 02:00:19;;;;;;;35.10;15.00;;;;;;;0.01;100.00;96687.56;1019955;29;20478;-55
2021/03/23 02:00:50;;;;;;;35.15;15.65;;;;;;;0.16;100.00;96706.72;1027932;28;20062;-56
2021/03/23 02:01:20;;;;;;;41.20;16.55;;;;;;;0.26;100.00;96723.50;1031828;28;20113;-56
2021/03/23 02:01:52;;;;;;;29.90;14.85;;;;;;;0.25;100.00;96723.59;1031916;28;20037;-56
2021/03/23 02:02:24;;;;;;;32.78;15.23;;;;;;;0.15;100.00;96713.69;1027877;28;20110;-55
2021/03/23 02:02:55;;;;;;;31.10;15.43;;;;;;;0.23;100.00;96717.59;1036101;28;20089;-54
2021/03/23 02:03:26;;;;;;;37.58;16.60;;;;;;;0.18;100.00;96712.69;1023789;29;20433;-56
2021/03/23 02:03:57;;;;;;;33.50;15.52;;;;;;;0.20;100.00;96718.66;1027695;28;20065;-55
2021/03/23 02:04:28;;;;;;;33.78;16.42;;;;;;;0.16;100.00;96720.59;1023836;29;20030;-54
2021/03/23 02:04:59;;;;;;;34.13;16.05;;;;;;;0.13;100.00;96714.72;1035898;28;20025;-56
2021/03/23 02:05:31;;;;;;;28.60;15.10;;;;;;;0.13;100.00;96715.56;1035963;28;20057;-56
2021/03/23 02:06:02;;;;;;;32.83;16.65;;;;;;;0.11;100.00;96714.81;1035833;28;20022;-55
2021/03/23 02:06:34;;;;;;;29.08;15.00;;;;;;;0.10;100.00;96714.91;1023937;28;20022;-56
2021/03/23 02:07:05;;;;;;;32.72;16.63;;;;;;;0.07;100.00;96723.78;1027885;28;20015;-57
2021/03/23 02:07:39;;;;;;;37.97;17.88;;;;;;;0.07;100.00;96718.56;1023912;29;20019;-56
2021/03/23 02:08:10;;;;;;;32.53;15.88;;;;;;;0.06;100.00;96721.25;1023810;28;20059;-56
2021/03/23 02:08:41;;;;;;;35.72;15.60;;;;;;;0.03;100.00;96717.03;1027796;28;20026;-56
2021/03/23 02:09:22;;;;;;;35.13;16.02;;;;;;;0.02;100.00;96718.00;1027863;28;20400;-56
2021/03/23 02:09:53;;;;;;;35.58;16.00;;;;;;;0.04;100.00;96720.50;1027887;28;20038;-55
2021/03/23 02:10:24;;;;;;;38.80;16.23;;;;;;;0.00;100.00;96725.06;1027741;28;20054;-56
2021/03/23 02:10:56;;;;;;;35.20;16.27;;;;;;;-0.03;100.00;96718.25;1023905;29;20083;-55
2021/03/23 02:11:27;;;;;;;32.78;15.43;;;;;;;-0.03;100.00;96722.66;1027768;28;20029;-56
2021/03/23 02:12:00;;;;;;;29.92;15.60;;;;;;;-0.06;100.00;96725.44;1027935;28;20412;-56
2021/03/23 02:12:30;;;;;;;37.03;17.30;;;;;;;-0.06;100.00;96728.03;1023698;29;20035;-56
2021/03/23 02:13:03;;;;;;;29.98;14.43;;;;;;;-0.07;100.00;96714.16;1027913;28;20077;-56
2021/03/23 02:13:34;;;;;;;34.83;15.30;;;;;;;-0.07;100.00;96718.50;1028255;28;20023;-56
2021/03/23 02:14:05;;;;;;;33.97;16.05;;;;;;;-0.07;100.00;96723.72;1031826;28;20029;-55
2021/03/23 02:14:38;;;;;;;35.25;17.50;;;;;;;-0.07;100.00;96719.38;1023716;28;20553;-56
2021/03/23 02:15:10;;;;;;;37.70;17.13;;;;;;;-0.08;100.00;96717.69;1028020;28;20113;-55
2021/03/23 02:15:40;;;;;;;43.55;16.67;;;;;;;-0.07;100.00;96723.72;1027786;28;20019;-55
2021/03/23 02:16:11;;;;;;;40.03;16.08;;;;;;;-0.10;100.00;96714.31;1023859;28;20027;-56
2021/03/23 02:16:42;;;;;;;30.80;15.30;;;;;;;-0.08;100.00;96715.06;1023759;28;20029;-57
2021/03/23 02:17:17;;;;;;;38.63;17.13;;;;;;;-0.07;100.00;96718.50;1027842;28;20129;-56
2021/03/23 02:18:05;;;;;;;36.13;15.65;;;;;;;-0.11;100.00;96720.47;1027840;28;20109;-56
2021/03/23 02:18:36;;;;;;;33.08;15.20;;;;;;;-0.11;100.00;96719.63;1027009;28;20392;-56
2021/03/23 02:19:07;;;;;;;31.70;15.48;;;;;;;-0.23;100.00;96703.78;1028759;28;20018;-56
2021/03/23 02:19:38;;;;;;;36.45;15.88;;;;;;;-0.12;100.00;96724.03;1027797;28;20461;-55
2021/03/23 02:20:18;;;;;;;33.58;16.20;;;;;;;-0.17;100.00;96710.41;1027845;28;20079;-56
2021/03/23 02:21:07;;;;;;;36.20;15.45;;;;;;;-0.12;100.00;96720.56;1027710;28;20062;-56
2021/03/23 02:21:37;;;;;;;35.05;16.10;;;;;;;-0.15;100.00;96720.75;1023980;28;20027;-54
2021/03/23 02:22:25;;;;;;;35.47;15.30;;;;;;;-0.15;100.00;96728.59;1027837;28;20023;-56
2021/03/23 02:23:09;;;;;;;31.63;14.35;;;;;;;-0.18;100.00;96718.31;1039929;28;20041;-55
2021/03/23 02:23:42;;;;;;;38.50;16.20;;;;;;;-0.18;100.00;96723.53;1027709;28;20061;-55
2021/03/23 02:24:13;;;;;;;37.25;16.02;;;;;;;-0.18;100.00;96715.72;1023899;28;20039;-56
2021/03/23 02:24:44;;;;;;;31.23;14.43;;;;;;;-0.18;100.00;96718.31;1023687;29;20023;-56
2021/03/23 02:25:19;;;;;;;30.80;15.75;;;;;;;-0.21;100.00;96720.19;1031800;28;20424;-54
2021/03/23 02:25:50;;;;;;;40.85;16.42;;;;;;;-0.25;100.00;96715.22;1031794;28;20094;-57
2021/03/23 02:26:22;;;;;;;32.03;15.55;;;;;;;-0.25;100.00;96710.84;1027887;28;20027;-54
2021/03/23 02:26:53;;;;;;;33.42;15.10;;;;;;;-0.27;100.00;96719.72;1023635;28;20055;-55